Time;durP1;ratioP1;P1;durP2;ratioP2;P2;SDS_P1;SDS_P2;PMS_P1;PMS_P2;Temp;Humidity;BMP_temperature;BMP_pressure;BME280_temperature;BME280_humidity;BME280_pressure;Samples;Min_cycle;Max_cycle;Signal;HPM_P1;HPM_P2
2022/08/14 00:02:14;;;;;;;12.98;11.85;;;;;;;19.47;100.00;99462.19;5054185;28;20075;-78
2022/08/14 00:04:39;;;;;;;13.23;11.98;;;;;;;19.49;100.00;99459.41;5053895;28;20025;-78
2022/08/14 00:07:05;;;;;;;14.10;12.23;;;;;;;19.43;100.00;99455.50;5054112;28;20040;-78
2022/08/14 00:09:31;;;;;;;13.85;12.43;;;;;;;19.45;100.00;99446.44;5053887;28;20025;-78
2022/08/14 00:11:56;;;;;;;13.68;12.27;;;;;;;19.45;100.00;99464.94;5053529;28;20029;-78
2022/08/14 00:14:22;;;;;;;13.57;12.18;;;;;;;19.45;100.00;99457.03;5053985;28;20034;-79
2022/08/14 00:16:49;;;;;;;12.40;11.10;;;;;;;19.45;100.00;99454.38;5053412;28;20473;-79
2022/08/14 00:19:15;;;;;;;22.15;12.23;;;;;;;19.44;100.00;99446.59;5053832;28;20036;-78
2022/08/14 00:21:40;;;;;;;13.27;12.00;;;;;;;19.50;100.00;99448.69;5053626;28;20021;-78
2022/08/14 00:24:06;;;;;;;14.15;12.27;;;;;;;19.49;100.00;99444.38;5053016;28;20025;-79
2022/08/14 00:26:31;;;;;;;13.38;12.07;;;;;;;19.45;100.00;99441.16;5053572;28;20037;-78
2022/08/14 00:28:56;;;;;;;14.75;13.25;;;;;;;19.40;100.00;99431.97;5053470;28;20057;-78
2022/08/14 00:31:22;;;;;;;13.98;12.68;;;;;;;19.42;100.00;99440.59;5053599;28;20028;-79
2022/08/14 00:33:48;;;;;;;12.50;11.25;;;;;;;19.39;100.00;99432.97;5053327;28;20025;-78
2022/08/14 00:36:13;;;;;;;13.00;11.75;;;;;;;19.29;100.00;99421.50;5053414;28;20110;-78
2022/08/14 00:38:38;;;;;;;12.95;11.75;;;;;;;19.30;100.00;99429.31;5053359;28;20025;-79
2022/08/14 00:41:06;;;;;;;14.95;13.45;;;;;;;19.29;100.00;99422.34;5053014;28;20021;-78
2022/08/14 00:43:35;;;;;;;13.95;12.65;;;;;;;19.33;100.00;99441.41;5053476;28;20029;-78
2022/08/14 00:46:03;;;;;;;15.05;12.77;;;;;;;19.27;100.00;99420.81;5053134;28;20033;-78
2022/08/14 00:48:29;;;;;;;13.43;12.07;;;;;;;19.25;100.00;99415.66;5053303;28;20029;-78
2022/08/14 00:50:54;;;;;;;14.18;12.73;;;;;;;19.21;100.00;99416.88;5052933;28;20516;-78
2022/08/14 00:53:22;;;;;;;14.10;12.68;;;;;;;19.22;100.00;99425.66;5053306;28;20380;-78
2022/08/14 00:55:49;;;;;;;14.40;13.00;;;;;;;19.12;100.00;99417.66;5052720;28;20029;-78
2022/08/14 00:58:30;;;;;;;15.80;13.93;;;;;;;19.14;100.00;99416.59;5053076;28;20056;-78
2022/08/14 01:00:58;;;;;;;15.85;14.32;;;;;;;19.08;100.00;99408.34;5034844;28;20081;-78
2022/08/14 01:03:24;;;;;;;15.63;14.02;;;;;;;19.10;100.00;99415.19;5053023;28;20090;-78
2022/08/14 01:05:51;;;;;;;15.57;14.07;;;;;;;19.04;100.00;99407.75;5052403;28;20041;-78
2022/08/14 01:08:22;;;;;;;15.23;13.75;;;;;;;19.04;100.00;99406.94;5053028;28;20056;-78
2022/08/14 01:10:49;;;;;;;16.25;14.18;;;;;;;19.08;100.00;99410.97;5052688;28;20061;-79
2022/08/14 01:13:18;;;;;;;15.88;14.40;;;;;;;19.02;100.00;99406.25;5052830;28;20033;-78
2022/08/14 01:15:48;;;;;;;16.08;14.57;;;;;;;19.09;100.00;99408.22;5052709;28;20025;-78
2022/08/14 01:21:11;;;;;;;17.45;14.85;;;;;;;19.11;100.00;99410.72;5052378;28;20052;-78
2022/08/14 01:23:52;;;;;;;17.43;13.77;;;;;;;19.11;100.00;99397.53;5052628;28;20025;-78
2022/08/14 01:26:19;;;;;;;;;;;;;;;19.12;100.00;99405.31;5052955;28;20104;-78
2022/08/14 01:28:47;;;;;;;16.40;14.82;;;;;;;19.11;100.00;99403.66;5052393;28;19913;-78
2022/08/14 01:31:17;;;;;;;17.67;15.82;;;;;;;19.05;100.00;99390.16;5052372;28;20033;-78
2022/08/14 01:33:46;;;;;;;;;;;;;;;19.14;100.00;99405.19;5052545;28;20024;-78
2022/08/14 01:36:14;;;;;;;17.88;16.13;;;;;;;19.13;100.00;99408.78;5051886;28;19912;-78
2022/08/14 01:38:42;;;;;;;17.52;15.77;;;;;;;19.09;100.00;99405.59;5052214;28;20025;-78
2022/08/14 01:41:11;;;;;;;18.30;16.30;;;;;;;19.16;100.00;99406.72;5051973;28;20116;-79
2022/08/14 01:43:47;;;;;;;18.20;16.33;;;;;;;19.14;100.00;99397.28;5052021;28;20027;-78
2022/08/14 01:46:14;;;;;;;18.58;16.70;;;;;;;19.23;100.00;99406.22;5052023;28;20128;-78
2022/08/14 01:48:43;;;;;;;18.58;16.42;;;;;;;19.22;100.00;99399.25;5052037;28;20574;-78
2022/08/14 01:51:10;;;;;;;17.42;15.68;;;;;;;19.19;100.00;99401.19;5051959;28;20044;-78
2022/08/14 01:53:38;;;;;;;15.85;14.43;;;;;;;19.14;100.00;99390.19;5052085;28;20087;-78
2022/08/14 01:56:04;;;;;;;17.83;15.95;;;;;;;19.18;100.00;99402.16;5051569;28;20036;-78
2022/08/14 01:58:30;;;;;;;20.10;17.27;;;;;;;19.11;100.00;99395.72;5052080;28;20043;-78
2022/08/14 02:00:57;;;;;;;18.52;16.70;;;;;;;19.09;100.00;99392.41;5051833;28;20032;-78
2022/08/14 02:03:34;;;;;;;19.95;17.95;;;;;;;19.11;100.00;99402.81;5051940;28;20132;-78
2022/08/14 02:06:01;;;;;;;19.48;17.48;;;;;;;19.07;100.00;99401.41;5051838;28;20044;-78
2022/08/14 02:08:28;;;;;;;19.58;17.67;;;;;;;18.96;100.00;99391.75;5051755;28;20096;-78
2022/08/14 02:11:17;;;;;;;19.67;17.63;;;;;;;18.91;100.00;99394.78;5051776;28;20075;-79
2022/08/14 02:13:45;;;;;;;19.48;17.65;;;;;;;18.85;100.00;99391.84;5051970;28;20056;-78
2022/08/14 02:16:11;;;;;;;21.30;18.77;;;;;;;18.83;100.00;99386.69;5051537;28;20087;-78
2022/08/14 02:18:37;;;;;;;21.73;19.52;;;;;;;18.81;100.00;99391.25;5051812;28;20025;-78
2022/08/14 02:21:03;;;;;;;20.52;18.30;;;;;;;18.78;100.00;99388.88;5051453;28;20396;-78
2022/08/14 02:23:30;;;;;;;22.45;20.20;;;;;;;18.76;100.00;99380.28;5051929;28;20522;-78
2022/08/14 02:25:58;;;;;;;21.90;19.70;;;;;;;18.70;100.00;99376.34;5051638;28;20086;-78
2022/08/14 02:28:24;;;;;;;23.65;21.42;;;;;;;18.72;100.00;99378.84;5051839;28;20100;-78
2022/08/14 02:30:50;;;;;;;22.90;20.70;;;;;;;18.66;100.00;99371.41;5051684;28;20091;-78
2022/08/14 02:33:15;;;;;;;23.38;21.08;;;;;;;18.67;100.00;99376.59;5051663;28;20033;-78
2022/08/14 02:35:42;;;;;;;23.00;20.85;;;;;;;18.62;100.00;99378.75;5009286;28;20178;-78
2022/08/14 02:38:08;;;;;;;23.60;21.13;;;;;;;18.58;100.00;99373.88;5009147;28;20038;-78
2022/08/14 02:40:36;;;;;;;23.63;21.30;;;;;;;18.53;100.00;99360.22;5009465;28;20196;-78
2022/08/14 02:43:02;;;;;;;24.15;21.67;;;;;;;18.53;100.00;99370.78;5009263;28;20129;-78
2022/08/14 02:45:31;;;;;;;23.98;21.60;;;;;;;18.57;100.00;99378.31;5010243;28;20057;-78
2022/08/14 02:47:57;;;;;;;23.55;21.25;;;;;;;18.53;100.00;99371.63;5013012;28;20045;-78
2022/08/14 02:50:22;;;;;;;22.00;19.77;;;;;;;18.48;100.00;99355.34;5013273;28;20389;-78
2022/08/14 02:52:48;;;;;;;24.45;22.10;;;;;;;18.44;100.00;99346.03;5013246;28;20169;-78
2022/08/14 02:55:13;;;;;;;24.17;21.85;;;;;;;18.50;100.00;99355.22;5013156;28;21067;-78
2022/08/14 02:57:39;;;;;;;23.98;21.63;;;;;;;18.49;100.00;99357.00;5013071;28;20126;-78
2022/08/14 03:00:05;;;;;;;24.92;22.48;;;;;;;18.47;100.00;99356.31;4996335;28;20474;-78
2022/08/14 03:02:32;;;;;;;24.13;21.83;;;;;;;18.43;100.00;99349.63;5013023;28;20060;-78
2022/08/14 03:04:57;;;;;;;25.48;23.08;;;;;;;18.50;100.00;99356.06;5012577;28;20040;-78
2022/08/14 03:07:24;;;;;;;23.13;21.00;;;;;;;18.52;100.00;99359.41;5012953;28;20038;-78
2022/08/14 03:09:50;;;;;;;22.13;19.92;;;;;;;18.51;100.00;99355.09;5012880;28;20038;-78
2022/08/14 03:12:15;;;;;;;21.90;19.80;;;;;;;18.51;100.00;99351.63;5018497;28;20056;-78
2022/08/14 03:14:47;;;;;;;23.35;21.02;;;;;;;18.51;100.00;99349.81;5055002;28;20036;-78
2022/08/14 03:17:14;;;;;;;21.30;19.40;;;;;;;18.50;100.00;99348.16;5054564;28;20107;-78
2022/08/14 03:19:39;;;;;;;22.30;20.20;;;;;;;18.49;100.00;99329.81;5055042;28;20377;-78
2022/08/14 03:22:04;;;;;;;21.10;18.95;;;;;;;18.60;100.00;99345.56;5054581;28;20032;-78
2022/08/14 03:24:30;;;;;;;23.05;20.75;;;;;;;18.66;100.00;99342.41;5054888;28;20532;-78
2022/08/14 03:26:55;;;;;;;22.48;20.30;;;;;;;18.66;100.00;99334.47;5054664;28;20103;-78
2022/08/14 03:29:21;;;;;;;21.35;19.35;;;;;;;18.75;100.00;99346.94;5054595;28;20025;-78
2022/08/14 03:31:50;;;;;;;22.05;19.85;;;;;;;18.78;100.00;99343.19;5054827;28;20025;-78
2022/08/14 03:34:15;;;;;;;22.23;19.63;;;;;;;18.82;100.00;99345.44;5054379;28;20424;-78
2022/08/14 03:36:42;;;;;;;23.05;20.88;;;;;;;18.87;100.00;99345.88;5054766;28;20075;-78
2022/08/14 03:39:09;;;;;;;23.05;20.85;;;;;;;18.81;100.00;99327.94;5054502;28;20445;-78
2022/08/14 03:41:35;;;;;;;22.35;20.25;;;;;;;18.90;100.00;99339.50;5054580;28;20044;-78
2022/08/14 03:44:03;;;;;;;21.58;19.48;;;;;;;18.85;100.00;99321.44;5054227;28;20468;-78
2022/08/14 03:46:31;;;;;;;21.92;19.73;;;;;;;18.79;100.00;99316.66;5054305;28;20108;-78
2022/08/14 03:49:00;;;;;;;20.33;18.35;;;;;;;18.89;100.00;99333.41;5054487;28;20029;-78
2022/08/14 03:51:27;;;;;;;18.77;17.00;;;;;;;18.83;100.00;99322.53;5054430;28;20564;-78
2022/08/14 03:53:55;;;;;;;18.23;16.45;;;;;;;18.90;100.00;99326.31;5054364;28;20116;-78
2022/08/14 03:56:22;;;;;;;19.42;15.70;;;;;;;18.93;100.00;99331.34;5053975;28;20032;-78
2022/08/14 03:58:50;;;;;;;17.00;15.35;;;;;;;18.95;100.00;99330.22;5053466;28;20416;-78
2022/08/14 04:01:20;;;;;;;17.70;16.10;;;;;;;18.99;100.00;99322.88;5054296;28;20079;-78
2022/08/14 04:03:47;;;;;;;17.40;15.60;;;;;;;18.93;100.00;99316.34;5054291;28;20081;-79
2022/08/14 04:06:12;;;;;;;18.23;16.38;;;;;;;19.01;100.00;99326.22;5053771;28;20527;-79
2022/08/14 04:08:39;;;;;;;15.75;14.25;;;;;;;19.03;100.00;99329.56;5053982;28;20064;-78
2022/08/14 04:11:06;;;;;;;17.25;15.40;;;;;;;19.05;100.00;99322.34;5053751;28;20048;-78
2022/08/14 04:13:34;;;;;;;17.23;15.60;;;;;;;19.11;100.00;99328.91;5054064;28;20534;-78
2022/08/14 04:16:07;;;;;;;16.75;14.63;;;;;;;19.07;100.00;99311.66;5053699;28;20071;-78
2022/08/14 04:18:38;;;;;;;15.65;14.15;;;;;;;19.19;100.00;99324.63;5053939;28;20032;-79
2022/08/14 04:21:04;;;;;;;17.23;13.68;;;;;;;19.30;100.00;99328.97;5053724;28;20033;-78
2022/08/14 04:23:30;;;;;;;14.63;13.25;;;;;;;19.37;100.00;99331.88;5053796;28;20542;-78
2022/08/14 04:25:56;;;;;;;15.68;14.27;;;;;;;19.43;100.00;99324.28;5053529;28;20029;-78
2022/08/14 04:28:21;;;;;;;14.18;12.70;;;;;;;19.53;100.00;99326.09;5053562;28;20025;-78
2022/08/14 04:30:47;;;;;;;15.43;13.93;;;;;;;19.53;100.00;99319.00;5053712;28;20080;-79
2022/08/14 04:33:13;;;;;;;14.65;13.15;;;;;;;19.67;100.00;99334.47;5053362;28;20064;-78
2022/08/14 04:35:39;;;;;;;14.80;13.27;;;;;;;19.72;100.00;99323.53;5053483;28;20116;-78
2022/08/14 04:43:39;;;;;;;13.43;11.85;;;;;;;19.81;100.00;99314.75;5053549;28;20499;-78
2022/08/14 04:46:15;;;;;;;14.18;12.77;;;;;;;19.87;100.00;99323.94;5053028;28;20528;-79
2022/08/14 04:48:41;;;;;;;13.00;11.85;;;;;;;19.90;100.00;99315.72;5053182;28;20068;-78
2022/08/14 04:51:12;;;;;;;12.75;11.52;;;;;;;19.93;100.00;99316.28;5052840;28;20122;-79
2022/08/14 04:53:42;;;;;;;12.18;10.98;;;;;;;19.91;100.00;99296.25;5053272;28;20031;-78
2022/08/14 04:56:15;;;;;;;12.27;11.07;;;;;;;19.96;100.00;99299.31;5053006;28;20029;-79
2022/08/14 04:58:41;;;;;;;13.32;11.15;;;;;;;20.02;100.00;99298.75;5053159;28;20027;-78
2022/08/14 05:01:09;;;;;;;12.38;11.18;;;;;;;20.06;100.00;99300.16;5052862;28;20024;-78
2022/08/14 05:03:36;;;;;;;12.57;11.35;;;;;;;20.13;100.00;99306.53;5052810;28;20031;-79
2022/08/14 05:06:07;;;;;;;12.73;11.55;;;;;;;20.08;100.00;99305.28;5052939;28;20051;-79
2022/08/14 05:08:33;;;;;;;15.45;13.23;;;;;;;20.04;100.00;99315.31;5052257;28;20028;-78
2022/08/14 05:11:01;;;;;;;14.57;13.27;;;;;;;19.93;100.00;99308.38;5052679;28;20044;-78
2022/08/14 05:13:28;;;;;;;17.30;14.27;;;;;;;19.96;100.00;99314.34;5052541;28;20017;-79
2022/08/14 05:15:57;;;;;;;18.15;14.48;;;;;;;19.87;100.00;99305.44;5052699;28;20029;-79
2022/08/14 05:18:28;;;;;;;17.98;16.17;;;;;;;19.85;100.00;99302.09;5052506;28;20025;-78
2022/08/14 05:20:56;;;;;;;18.67;16.85;;;;;;;19.80;100.00;99301.66;5052766;28;20165;-79
2022/08/14 05:23:23;;;;;;;17.98;16.23;;;;;;;19.83;100.00;99309.31;5052324;28;20385;-78
2022/08/14 05:25:54;;;;;;;19.25;17.45;;;;;;;19.81;100.00;99300.72;5052506;28;20025;-79
2022/08/14 05:28:21;;;;;;;20.42;18.42;;;;;;;19.76;100.00;99306.38;5052097;28;20368;-78
2022/08/14 05:30:50;;;;;;;21.63;19.25;;;;;;;19.77;100.00;99321.28;5052431;28;20123;-79
2022/08/14 05:33:17;;;;;;;20.90;18.95;;;;;;;19.75;100.00;99310.00;5052240;28;20033;-79
2022/08/14 05:35:47;;;;;;;20.98;18.98;;;;;;;19.70;100.00;99301.66;5052423;28;20029;-78
2022/08/14 05:38:15;;;;;;;22.30;20.08;;;;;;;19.77;100.00;99299.31;5052030;28;20389;-78
2022/08/14 05:40:42;;;;;;;23.38;20.20;;;;;;;19.94;100.00;99311.84;5052253;28;20025;-78
2022/08/14 05:43:07;;;;;;;22.50;20.38;;;;;;;19.90;100.00;99294.59;5051951;28;20064;-78
2022/08/14 05:45:34;;;;;;;21.33;19.25;;;;;;;19.88;100.00;99296.53;5052332;28;20079;-78
2022/08/14 05:48:00;;;;;;;23.45;21.25;;;;;;;19.82;100.00;99300.56;5052267;28;20033;-79
2022/08/14 05:50:25;;;;;;;23.70;20.58;;;;;;;19.82;100.00;99295.28;5051972;28;20158;-78
2022/08/14 05:52:51;;;;;;;23.75;21.42;;;;;;;19.90;100.00;99298.06;5052130;28;20091;-79
2022/08/14 05:55:17;;;;;;;23.15;20.52;;;;;;;19.89;100.00;99288.47;5051818;28;20126;-78
2022/08/14 05:57:56;;;;;;;24.45;21.90;;;;;;;19.93;100.00;99299.56;5051858;28;20614;-79
2022/08/14 06:00:24;;;;;;;24.90;21.17;;;;;;;19.92;100.00;99313.78;5034001;28;20036;-78
2022/08/14 06:02:50;;;;;;;24.15;21.80;;;;;;;19.89;100.00;99299.03;5052354;28;20523;-79
2022/08/14 06:05:16;;;;;;;22.67;20.63;;;;;;;20.00;100.00;99302.50;5051746;28;20136;-79
2022/08/14 06:07:41;;;;;;;24.10;21.60;;;;;;;20.05;100.00;99301.09;5051931;28;20028;-79
2022/08/14 06:10:08;;;;;;;23.98;21.58;;;;;;;20.10;100.00;99293.59;5051615;28;20168;-78
2022/08/14 06:12:34;;;;;;;24.45;22.08;;;;;;;20.05;100.00;99285.25;5052137;28;20025;-78
2022/08/14 06:15:00;;;;;;;25.02;22.50;;;;;;;20.02;100.00;99292.66;5052045;28;20183;-78
2022/08/14 06:17:26;;;;;;;26.15;23.45;;;;;;;19.97;100.00;99298.31;5051502;28;20036;-78
2022/08/14 06:19:51;;;;;;;25.48;22.77;;;;;;;19.85;100.00;99287.09;5052220;28;20033;-78
2022/08/14 06:22:17;;;;;;;25.58;23.08;;;;;;;19.78;100.00;99280.69;5057983;28;20025;-78
2022/08/14 06:24:42;;;;;;;25.10;22.70;;;;;;;19.79;100.00;99278.88;5058367;28;20035;-78
2022/08/14 06:27:08;;;;;;;23.75;21.42;;;;;;;19.74;100.00;99276.63;5058289;28;20028;-79
2022/08/14 06:29:35;;;;;;;26.38;23.65;;;;;;;19.67;100.00;99276.34;5058463;28;20039;-78
2022/08/14 06:32:01;;;;;;;25.38;22.85;;;;;;;19.71;100.00;99287.47;5058231;28;20514;-78
2022/08/14 06:34:26;;;;;;;24.50;22.17;;;;;;;19.65;100.00;99274.84;5058074;28;20108;-79
2022/08/14 06:36:52;;;;;;;25.30;22.75;;;;;;;19.69;100.00;99270.94;5058431;28;20112;-78
2022/08/14 06:39:17;;;;;;;25.88;23.48;;;;;;;19.67;100.00;99281.63;5057973;28;20032;-79
2022/08/14 06:41:43;;;;;;;24.98;22.33;;;;;;;19.71;100.00;99286.66;5058205;28;20036;-78
2022/08/14 06:44:08;;;;;;;25.13;22.50;;;;;;;19.67;100.00;99286.91;5058236;28;20116;-78
2022/08/14 06:46:34;;;;;;;25.80;23.40;;;;;;;19.64;100.00;99273.16;5058199;28;20040;-79
2022/08/14 06:49:00;;;;;;;24.75;21.85;;;;;;;19.67;100.00;99275.50;5058093;28;20114;-78
2022/08/14 06:51:25;;;;;;;27.15;24.55;;;;;;;19.62;100.00;99272.47;5057921;28;20036;-78
2022/08/14 06:53:50;;;;;;;23.90;21.58;;;;;;;19.62;100.00;99269.81;5058079;28;20104;-79
2022/08/14 06:56:16;;;;;;;26.10;23.60;;;;;;;19.69;100.00;99268.31;5058002;28;20037;-78
2022/08/14 06:58:41;;;;;;;26.00;23.45;;;;;;;19.74;100.00;99267.88;5058250;28;20028;-79
2022/08/14 07:06:34;;;;;;;26.58;24.08;;;;;;;19.85;100.00;99250.09;5057948;28;20122;-79
2022/08/14 07:09:00;;;;;;;27.50;24.88;;;;;;;19.93;100.00;99265.22;5057981;28;20041;-78
2022/08/14 07:11:26;;;;;;;27.88;25.08;;;;;;;19.99;100.00;99250.63;5057854;28;20025;-78
2022/08/14 07:13:52;;;;;;;25.40;23.02;;;;;;;20.04;100.00;99253.66;5058047;28;20469;-79
2022/08/14 07:16:17;;;;;;;27.70;24.77;;;;;;;20.17;100.00;99262.97;5057689;28;20039;-79
2022/08/14 07:18:44;;;;;;;26.85;24.45;;;;;;;20.24;100.00;99259.75;5057879;28;20029;-78
2022/08/14 07:21:09;;;;;;;26.23;23.55;;;;;;;20.22;100.00;99251.13;5058343;28;20512;-79
2022/08/14 07:23:35;;;;;;;26.85;24.25;;;;;;;20.29;100.00;99254.88;5057640;28;20112;-79
2022/08/14 07:26:01;;;;;;;25.77;23.08;;;;;;;20.41;100.00;99269.59;5039980;28;20052;-79
2022/08/14 07:28:33;;;;;;;24.98;22.55;;;;;;;20.40;100.00;99244.13;5058013;28;20460;-78
2022/08/14 07:31:01;;;;;;;28.02;24.98;;;;;;;20.39;100.00;99247.72;5057851;28;20028;-78
2022/08/14 07:33:36;;;;;;;29.23;24.50;;;;;;;20.46;100.00;99261.22;5053608;28;20044;-79
2022/08/14 07:36:04;;;;;;;26.25;23.38;;;;;;;20.35;100.00;99256.94;5054752;28;20036;-78
2022/08/14 07:38:30;;;;;;;26.45;23.95;;;;;;;20.38;100.00;99264.59;5054361;28;20025;-78
2022/08/14 07:40:56;;;;;;;24.38;21.88;;;;;;;20.39;100.00;99268.91;5054607;28;20493;-79
2022/08/14 07:43:21;;;;;;;24.88;22.35;;;;;;;20.37;100.00;99270.88;5054290;28;20139;-79
2022/08/14 07:45:48;;;;;;;25.55;22.90;;;;;;;20.42;100.00;99273.91;5054291;28;20067;-79
2022/08/14 07:48:13;;;;;;;27.23;24.60;;;;;;;20.43;100.00;99268.47;5054356;28;20025;-78
2022/08/14 07:50:39;;;;;;;24.25;21.73;;;;;;;20.53;100.00;99267.66;5054785;28;20078;-78
2022/08/14 07:53:08;;;;;;;25.92;23.42;;;;;;;20.56;100.00;99257.63;5054419;28;20104;-78
2022/08/14 07:55:34;;;;;;;26.40;23.58;;;;;;;20.56;100.00;99249.69;5054054;28;20235;-78
2022/08/14 07:57:59;;;;;;;27.33;23.45;;;;;;;20.60;100.00;99258.97;5054159;28;20028;-79
2022/08/14 08:00:25;;;;;;;26.25;23.65;;;;;;;20.57;100.00;99248.69;5053849;28;20037;-79
2022/08/14 08:02:53;;;;;;;27.05;23.30;;;;;;;20.58;100.00;99253.00;5054313;28;20100;-78
2022/08/14 08:05:23;;;;;;;26.08;23.55;;;;;;;20.51;100.00;99245.78;5053857;28;20480;-78
2022/08/14 08:07:50;;;;;;;27.77;25.10;;;;;;;20.44;100.00;99238.41;5054284;28;20065;-78
2022/08/14 08:10:33;;;;;;;28.02;25.42;;;;;;;20.44;100.00;99258.75;5054050;28;20263;-79
2022/08/14 08:13:03;;;;;;;29.75;26.75;;;;;;;20.28;100.00;99254.03;5053784;28;20112;-78
2022/08/14 08:15:32;;;;;;;28.70;25.70;;;;;;;20.34;100.00;99273.78;5053790;28;20048;-78
2022/08/14 08:18:02;;;;;;;28.35;25.52;;;;;;;20.34;100.00;99274.63;5053837;28;20025;-78
2022/08/14 08:20:28;;;;;;;31.48;28.38;;;;;;;20.33;100.00;99253.63;5053641;28;20155;-78
2022/08/14 08:22:57;;;;;;;29.25;26.63;;;;;;;20.32;100.00;99259.88;5053694;28;20163;-78
2022/08/14 08:25:25;;;;;;;31.27;27.92;;;;;;;20.29;100.00;99263.63;5053414;28;20029;-78
2022/08/14 08:28:00;;;;;;;30.20;27.15;;;;;;;20.25;100.00;99256.97;5053561;28;20029;-78
2022/08/14 08:30:27;;;;;;;30.10;26.88;;;;;;;20.20;100.00;99240.69;5053203;28;20054;-79
2022/08/14 08:32:55;;;;;;;29.17;26.27;;;;;;;20.25;100.00;99251.69;5053235;28;20043;-79
2022/08/14 08:35:23;;;;;;;26.63;24.10;;;;;;;20.29;100.00;99249.59;5053278;28;20017;-77
2022/08/14 08:37:49;;;;;;;23.35;21.15;;;;;;;20.31;100.00;99237.91;5053375;28;20096;-78
2022/08/14 08:40:27;;;;;;;26.73;24.27;;;;;;;20.42;100.00;99253.56;5035462;28;20695;-78
2022/08/14 08:42:52;;;;;;;24.77;22.38;;;;;;;20.45;100.00;99233.94;5053513;28;20025;-78
2022/08/14 08:45:20;;;;;;;26.17;23.48;;;;;;;20.57;100.00;99238.13;5053060;28;20027;-78
2022/08/14 08:47:47;;;;;;;27.67;24.98;;;;;;;20.74;100.00;99251.56;5053308;28;20044;-78
2022/08/14 08:50:22;;;;;;;26.42;23.80;;;;;;;20.89;100.00;99232.38;5053258;28;20017;-78
2022/08/14 08:52:53;;;;;;;27.08;24.35;;;;;;;21.03;100.00;99230.25;5053182;28;20111;-78
2022/08/14 08:55:37;;;;;;;26.20;23.67;;;;;;;21.13;100.00;99215.13;5053014;28;20075;-78
2022/08/14 08:58:08;;;;;;;24.85;22.55;;;;;;;21.40;100.00;99224.84;5052985;28;20025;-78
2022/08/14 09:00:36;;;;;;;24.35;22.15;;;;;;;21.72;100.00;99216.38;5052782;28;20029;-78
2022/08/14 09:03:17;;;;;;;24.60;22.10;;;;;;;22.06;100.00;99220.91;5052735;28;20029;-78
2022/08/14 09:05:53;;;;;;;24.13;21.80;;;;;;;22.45;100.00;99223.19;5052538;28;20049;-78
2022/08/14 09:08:24;;;;;;;23.60;21.25;;;;;;;22.70;100.00;99205.53;5052684;28;20086;-77
2022/08/14 09:10:50;;;;;;;23.63;21.35;;;;;;;23.08;100.00;99222.81;5052805;28;20380;-78
2022/08/14 09:13:18;;;;;;;20.20;18.30;;;;;;;23.25;100.00;99216.53;5052717;28;20028;-78
2022/08/14 09:15:47;;;;;;;17.90;16.30;;;;;;;23.45;100.00;99217.06;5052648;28;20017;-78
2022/08/14 09:18:15;;;;;;;21.27;19.25;;;;;;;23.81;100.00;99201.66;5052716;28;20112;-78
2022/08/14 09:20:42;;;;;;;19.02;17.33;;;;;;;24.15;100.00;99208.59;5052273;28;20021;-78
2022/08/14 09:23:08;;;;;;;20.17;18.25;;;;;;;24.37;100.00;99215.91;5052548;28;20043;-77
2022/08/14 09:25:35;;;;;;;18.05;16.15;;;;;;;24.33;100.00;99206.56;5052310;28;20487;-77
2022/08/14 09:28:01;;;;;;;16.88;15.18;;;;;;;24.32;100.00;99210.22;5052352;28;20029;-77
2022/08/14 09:30:27;;;;;;;13.93;12.60;;;;;;;24.19;100.00;99207.28;5052341;28;20048;-76
2022/08/14 09:33:04;;;;;;;14.80;13.30;;;;;;;23.97;100.00;99216.75;5052498;28;20071;-77
2022/08/14 09:35:57;;;;;;;13.48;12.18;;;;;;;23.93;100.00;99212.78;5052167;28;20028;-77
2022/08/14 09:38:31;;;;;;;17.25;13.07;;;;;;;23.76;100.00;99203.16;5051968;28;20044;-77
2022/08/14 09:41:12;;;;;;;15.55;14.00;;;;;;;23.78;100.00;99195.84;5052347;28;20031;-76
2022/08/14 09:44:14;;;;;;;16.20;14.50;;;;;;;23.97;100.00;99197.31;5052182;28;20029;-77
2022/08/14 09:46:50;;;;;;;15.73;13.27;;;;;;;24.24;100.00;99190.78;5051853;28;20150;-77
2022/08/14 09:49:15;;;;;;;14.80;13.48;;;;;;;24.43;100.00;99184.25;5052130;28;20032;-76
2022/08/14 09:51:42;;;;;;;14.10;12.70;;;;;;;24.56;100.00;99181.88;5051980;28;20025;-77
2022/08/14 09:54:11;;;;;;;20.48;13.75;;;;;;;24.60;100.00;99170.72;5052150;28;20067;-77
2022/08/14 09:56:48;;;;;;;14.65;13.25;;;;;;;24.85;100.00;99189.25;5051226;28;20120;-77
2022/08/14 09:59:21;;;;;;;15.52;13.93;;;;;;;25.00;100.00;99184.03;5051880;28;20033;-77
2022/08/14 10:01:47;;;;;;;13.70;11.93;;;;;;;25.02;100.00;99166.00;5052039;28;20472;-77
2022/08/14 10:04:27;;;;;;;13.45;12.05;;;;;;;25.01;100.00;99159.03;5052184;28;20052;-77
2022/08/14 10:06:53;;;;;;;13.68;12.38;;;;;;;24.83;99.87;99165.47;5051894;28;20515;-77
2022/08/14 10:09:19;;;;;;;15.23;13.68;;;;;;;24.60;100.00;99160.06;5052001;28;20021;-77
2022/08/14 10:11:57;;;;;;;15.32;13.85;;;;;;;24.70;100.00;99161.72;5051572;28;20033;-76
2022/08/14 10:14:27;;;;;;;16.63;12.52;;;;;;;24.90;99.69;99149.59;5051661;28;20440;-77
2022/08/14 10:16:56;;;;;;;12.73;11.45;;;;;;;25.17;99.41;99158.94;5052101;28;20029;-77
2022/08/14 10:19:26;;;;;;;14.90;13.02;;;;;;;25.18;98.01;99155.28;5051856;28;20029;-77
2022/08/14 10:22:09;;;;;;;15.95;14.32;;;;;;;24.95;98.46;99151.75;5051794;28;20062;-77
2022/08/14 10:24:45;;;;;;;15.30;13.43;;;;;;;24.66;100.00;99155.06;5051655;28;20032;-76
2022/08/14 10:27:22;;;;;;;13.50;12.13;;;;;;;24.39;100.00;99149.16;5051801;28;20078;-76
2022/08/14 10:29:53;;;;;;;12.65;11.40;;;;;;;24.45;100.00;99153.00;5051500;28;20033;-77
2022/08/14 10:32:21;;;;;;;14.98;13.55;;;;;;;24.53;100.00;99152.97;5051623;28;20108;-77
2022/08/14 10:34:48;;;;;;;14.43;13.13;;;;;;;24.60;100.00;99156.56;5051285;28;20037;-77
2022/08/14 10:37:18;;;;;;;13.65;12.10;;;;;;;24.55;100.00;99151.78;5051717;28;20021;-76
2022/08/14 10:39:45;;;;;;;;;;;;;;;24.43;100.00;99160.31;5051934;28;20036;-77
2022/08/14 10:42:13;;;;;;;13.55;12.18;;;;;;;24.35;100.00;99161.13;5051535;28;19909;-77
2022/08/14 10:44:48;;;;;;;13.50;11.95;;;;;;;24.33;100.00;99149.84;5051229;28;20035;-77
2022/08/14 10:47:16;;;;;;;14.98;10.85;;;;;;;24.41;100.00;99146.34;5051407;28;20033;-77
2022/08/14 10:49:54;;;;;;;12.00;10.75;;;;;;;24.57;100.00;99147.13;5051468;28;20039;-77
2022/08/14 10:52:26;;;;;;;13.13;11.88;;;;;;;24.99;99.17;99142.38;5051874;28;20126;-77
2022/08/14 10:54:52;;;;;;;12.95;10.90;;;;;;;24.98;97.48;99141.53;5051458;28;20060;-77
2022/08/14 10:57:23;;;;;;;13.00;10.95;;;;;;;24.72;96.99;99127.72;5033477;28;20110;-77
2022/08/14 10:59:54;;;;;;;11.57;10.43;;;;;;;24.50;97.90;99130.16;5051111;28;20389;-77
2022/08/14 11:02:29;;;;;;;11.82;10.63;;;;;;;24.19;98.56;99127.44;5051491;28;20025;-77
2022/08/14 11:05:01;;;;;;;10.70;9.68;;;;;;;24.02;97.14;99134.63;5051084;28;20354;-77
2022/08/14 11:07:28;;;;;;;13.77;10.18;;;;;;;23.94;98.53;99131.16;5051883;28;20033;-77
2022/08/14 11:09:59;;;;;;;13.40;9.68;;;;;;;23.97;97.40;99121.00;5055116;28;20411;-77
2022/08/14 11:12:25;;;;;;;10.95;9.82;;;;;;;24.05;97.02;99136.94;5055015;28;20032;-77
2022/08/14 11:14:51;;;;;;;11.45;10.18;;;;;;;23.99;97.49;99139.47;5055197;28;20111;-77
2022/08/14 11:17:16;;;;;;;12.70;8.95;;;;;;;23.92;97.96;99130.50;5055098;28;20053;-76
2022/08/14 11:19:43;;;;;;;12.10;10.85;;;;;;;23.94;97.98;99139.16;5054831;28;20086;-77
2022/08/14 11:22:10;;;;;;;12.20;9.98;;;;;;;23.67;98.68;99133.19;5054925;28;20099;-76
2022/08/14 11:24:38;;;;;;;42.50;26.92;;;;;;;23.53;99.86;99133.84;5054603;28;20029;-76
2022/08/14 11:27:04;;;;;;;15.30;11.00;;;;;;;23.38;100.00;99136.31;5054728;28;20017;-76
2022/08/14 11:29:30;;;;;;;17.05;11.70;;;;;;;23.09;100.00;99132.34;5054727;28;20035;-77
2022/08/14 11:31:58;;;;;;;15.63;11.77;;;;;;;23.04;100.00;99129.31;5054841;28;20495;-76